sensor_id;sensor_type;location;lat;lon;timestamp;P1;durP1;ratioP1;P2;durP2;ratioP2
56161;SDS011;42045;52.986;6.014;2023-01-19T00:00:59;5.63;;;1.20;;
56161;SDS011;42045;52.986;6.014;2023-01-19T00:03:25;3.90;;;0.93;;
56161;SDS011;42045;52.986;6.014;2023-01-19T00:05:51;5.25;;;1.20;;
56161;SDS011;42045;52.986;6.014;2023-01-19T00:08:16;4.22;;;0.98;;
56161;SDS011;42045;52.986;6.014;2023-01-19T00:10:44;8.90;;;1.40;;
56161;SDS011;42045;52.986;6.014;2023-01-19T00:13:12;4.70;;;1.13;;
56161;SDS011;42045;52.986;6.014;2023-01-19T00:15:38;5.97;;;1.10;;
56161;SDS011;42045;52.986;6.014;2023-01-19T00:18:04;3.30;;;0.68;;
56161;SDS011;42045;52.986;6.014;2023-01-19T00:20:30;6.25;;;1.23;;
56161;SDS011;42045;52.986;6.014;2023-01-19T00:22:59;8.60;;;2.33;;
56161;SDS011;42045;52.986;6.014;2023-01-19T00:25:26;8.23;;;1.17;;
56161;SDS011;42045;52.986;6.014;2023-01-19T00:27:51;8.48;;;1.10;;
56161;SDS011;42045;52.986;6.014;2023-01-19T00:30:17;11.68;;;1.65;;
56161;SDS011;42045;52.986;6.014;2023-01-19T00:32:43;8.18;;;1.48;;
56161;SDS011;42045;52.986;6.014;2023-01-19T00:35:08;4.88;;;1.30;;
56161;SDS011;42045;52.986;6.014;2023-01-19T00:37:34;5.60;;;1.00;;
56161;SDS011;42045;52.986;6.014;2023-01-19T00:40:00;4.32;;;1.15;;
56161;SDS011;42045;52.986;6.014;2023-01-19T00:42:26;11.23;;;1.33;;
56161;SDS011;42045;52.986;6.014;2023-01-19T00:45:04;9.88;;;1.33;;
56161;SDS011;42045;52.986;6.014;2023-01-19T00:47:34;15.23;;;1.63;;
56161;SDS011;42045;52.986;6.014;2023-01-19T00:50:00;4.53;;;1.10;;
56161;SDS011;42045;52.986;6.014;2023-01-19T00:52:26;3.42;;;1.00;;
56161;SDS011;42045;52.986;6.014;2023-01-19T00:54:52;7.88;;;1.00;;
56161;SDS011;42045;52.986;6.014;2023-01-19T00:57:17;8.07;;;1.17;;
56161;SDS011;42045;52.986;6.014;2023-01-19T00:59:43;7.55;;;1.17;;
56161;SDS011;42045;52.986;6.014;2023-01-19T01:02:10;11.48;;;1.70;;
56161;SDS011;42045;52.986;6.014;2023-01-19T01:04:36;8.82;;;1.05;;
56161;SDS011;42045;52.986;6.014;2023-01-19T01:07:02;9.05;;;1.20;;
56161;SDS011;42045;52.986;6.014;2023-01-19T01:09:28;12.73;;;1.50;;
56161;SDS011;42045;52.986;6.014;2023-01-19T01:11:54;13.07;;;1.55;;
56161;SDS011;42045;52.986;6.014;2023-01-19T01:14:20;8.10;;;1.23;;
56161;SDS011;42045;52.986;6.014;2023-01-19T01:16:47;7.90;;;1.23;;
56161;SDS011;42045;52.986;6.014;2023-01-19T01:19:12;9.77;;;1.75;;
56161;SDS011;42045;52.986;6.014;2023-01-19T01:21:38;8.23;;;1.33;;
56161;SDS011;42045;52.986;6.014;2023-01-19T01:24:04;11.60;;;1.23;;
56161;SDS011;42045;52.986;6.014;2023-01-19T01:26:30;7.60;;;1.38;;
56161;SDS011;42045;52.986;6.014;2023-01-19T01:28:55;6.57;;;1.30;;
56161;SDS011;42045;52.986;6.014;2023-01-19T01:31:21;9.52;;;1.40;;
56161;SDS011;42045;52.986;6.014;2023-01-19T01:33:47;10.73;;;1.42;;
56161;SDS011;42045;52.986;6.014;2023-01-19T01:36:13;10.50;;;1.10;;
56161;SDS011;42045;52.986;6.014;2023-01-19T01:38:39;8.65;;;1.30;;
56161;SDS011;42045;52.986;6.014;2023-01-19T01:41:05;15.13;;;1.90;;
56161;SDS011;42045;52.986;6.014;2023-01-19T01:43:50;7.65;;;1.10;;
56161;SDS011;42045;52.986;6.014;2023-01-19T01:46:20;5.90;;;1.10;;
56161;SDS011;42045;52.986;6.014;2023-01-19T01:51:34;11.05;;;1.52;;
56161;SDS011;42045;52.986;6.014;2023-01-19T01:56:58;8.30;;;1.48;;
56161;SDS011;42045;52.986;6.014;2023-01-19T01:59:36;12.48;;;1.67;;
56161;SDS011;42045;52.986;6.014;2023-01-19T02:02:06;6.43;;;1.40;;
56161;SDS011;42045;52.986;6.014;2023-01-19T02:04:55;6.10;;;1.00;;
56161;SDS011;42045;52.986;6.014;2023-01-19T02:07:32;4.85;;;0.98;;
56161;SDS011;42045;52.986;6.014;2023-01-19T02:10:28;5.43;;;1.30;;
56161;SDS011;42045;52.986;6.014;2023-01-19T02:13:13;6.95;;;1.30;;
56161;SDS011;42045;52.986;6.014;2023-01-19T02:15:46;5.75;;;1.00;;
56161;SDS011;42045;52.986;6.014;2023-01-19T02:18:14;4.22;;;1.10;;
56161;SDS011;42045;52.986;6.014;2023-01-19T02:20:41;6.55;;;1.15;;
56161;SDS011;42045;52.986;6.014;2023-01-19T02:23:26;9.23;;;1.17;;
56161;SDS011;42045;52.986;6.014;2023-01-19T02:26:07;3.25;;;0.90;;
56161;SDS011;42045;52.986;6.014;2023-01-19T02:28:36;7.25;;;0.90;;
56161;SDS011;42045;52.986;6.014;2023-01-19T02:31:05;4.00;;;1.52;;
56161;SDS011;42045;52.986;6.014;2023-01-19T02:33:31;4.07;;;0.93;;
56161;SDS011;42045;52.986;6.014;2023-01-19T02:35:57;4.15;;;1.00;;
56161;SDS011;42045;52.986;6.014;2023-01-19T02:38:24;2.25;;;0.70;;
56161;SDS011;42045;52.986;6.014;2023-01-19T02:40:52;5.88;;;1.00;;
56161;SDS011;42045;52.986;6.014;2023-01-19T02:43:19;3.35;;;0.70;;
56161;SDS011;42045;52.986;6.014;2023-01-19T02:45:47;3.67;;;0.70;;
56161;SDS011;42045;52.986;6.014;2023-01-19T02:48:14;6.70;;;0.93;;
56161;SDS011;42045;52.986;6.014;2023-01-19T02:50:43;5.22;;;0.98;;
56161;SDS011;42045;52.986;6.014;2023-01-19T02:53:23;5.38;;;0.90;;
56161;SDS011;42045;52.986;6.014;2023-01-19T02:55:57;4.57;;;0.90;;
56161;SDS011;42045;52.986;6.014;2023-01-19T02:58:31;6.90;;;1.23;;
56161;SDS011;42045;52.986;6.014;2023-01-19T03:06:24;2.42;;;0.60;;
56161;SDS011;42045;52.986;6.014;2023-01-19T03:09:13;2.42;;;0.65;;
56161;SDS011;42045;52.986;6.014;2023-01-19T03:12:23;7.95;;;0.82;;
56161;SDS011;42045;52.986;6.014;2023-01-19T03:14:45;6.78;;;1.17;;
56161;SDS011;42045;52.986;6.014;2023-01-19T03:17:14;4.85;;;1.00;;
56161;SDS011;42045;52.986;6.014;2023-01-19T03:19:42;5.45;;;1.05;;
56161;SDS011;42045;52.986;6.014;2023-01-19T03:22:12;8.20;;;1.20;;
56161;SDS011;42045;52.986;6.014;2023-01-19T03:24:41;4.63;;;1.02;;
56161;SDS011;42045;52.986;6.014;2023-01-19T03:27:20;6.57;;;1.00;;
56161;SDS011;42045;52.986;6.014;2023-01-19T03:30:06;7.25;;;1.20;;
56161;SDS011;42045;52.986;6.014;2023-01-19T03:32:36;4.10;;;0.88;;
56161;SDS011;42045;52.986;6.014;2023-01-19T03:35:09;6.03;;;0.70;;
56161;SDS011;42045;52.986;6.014;2023-01-19T03:37:39;5.85;;;0.60;;
56161;SDS011;42045;52.986;6.014;2023-01-19T03:40:08;6.03;;;0.98;;
56161;SDS011;42045;52.986;6.014;2023-01-19T03:42:35;2.97;;;0.80;;
56161;SDS011;42045;52.986;6.014;2023-01-19T03:45:02;3.15;;;0.50;;
56161;SDS011;42045;52.986;6.014;2023-01-19T03:47:29;4.55;;;0.65;;
56161;SDS011;42045;52.986;6.014;2023-01-19T03:49:55;5.43;;;0.90;;
56161;SDS011;42045;52.986;6.014;2023-01-19T03:52:28;6.60;;;1.45;;
56161;SDS011;42045;52.986;6.014;2023-01-19T03:54:58;8.52;;;1.42;;
56161;SDS011;42045;52.986;6.014;2023-01-19T03:57:29;7.53;;;1.10;;
56161;SDS011;42045;52.986;6.014;2023-01-19T03:59:55;6.57;;;1.17;;
56161;SDS011;42045;52.986;6.014;2023-01-19T04:02:21;7.68;;;1.40;;
56161;SDS011;42045;52.986;6.014;2023-01-19T04:04:48;8.38;;;1.58;;
56161;SDS011;42045;52.986;6.014;2023-01-19T04:07:13;9.10;;;1.73;;
56161;SDS011;42045;52.986;6.014;2023-01-19T04:09:39;16.75;;;1.98;;
56161;SDS011;42045;52.986;6.014;2023-01-19T04:12:05;11.40;;;1.70;;
56161;SDS011;42045;52.986;6.014;2023-01-19T04:14:32;15.43;;;2.55;;
56161;SDS011;42045;52.986;6.014;2023-01-19T04:16:57;18.17;;;2.65;;
56161;SDS011;42045;52.986;6.014;2023-01-19T04:19:23;18.27;;;2.47;;
56161;SDS011;42045;52.986;6.014;2023-01-19T04:21:49;12.07;;;3.15;;
56161;SDS011;42045;52.986;6.014;2023-01-19T04:24:15;15.55;;;2.13;;
56161;SDS011;42045;52.986;6.014;2023-01-19T04:26:42;14.70;;;2.15;;
56161;SDS011;42045;52.986;6.014;2023-01-19T04:29:07;13.90;;;1.90;;
56161;SDS011;42045;52.986;6.014;2023-01-19T04:31:34;7.60;;;1.52;;
56161;SDS011;42045;52.986;6.014;2023-01-19T04:34:01;13.98;;;1.73;;
56161;SDS011;42045;52.986;6.014;2023-01-19T04:36:27;14.50;;;1.60;;
56161;SDS011;42045;52.986;6.014;2023-01-19T04:38:53;13.07;;;1.73;;
56161;SDS011;42045;52.986;6.014;2023-01-19T04:41:19;13.73;;;2.38;;
56161;SDS011;42045;52.986;6.014;2023-01-19T04:43:45;14.02;;;1.65;;
56161;SDS011;42045;52.986;6.014;2023-01-19T04:46:11;13.23;;;2.20;;
56161;SDS011;42045;52.986;6.014;2023-01-19T04:48:40;8.57;;;2.17;;
56161;SDS011;42045;52.986;6.014;2023-01-19T04:51:06;7.75;;;1.48;;
56161;SDS011;42045;52.986;6.014;2023-01-19T04:53:32;11.13;;;1.38;;
56161;SDS011;42045;52.986;6.014;2023-01-19T04:55:58;10.38;;;1.98;;
56161;SDS011;42045;52.986;6.014;2023-01-19T04:58:25;6.03;;;1.10;;
56161;SDS011;42045;52.986;6.014;2023-01-19T05:00:51;11.02;;;1.35;;
56161;SDS011;42045;52.986;6.014;2023-01-19T05:03:17;10.55;;;1.15;;
56161;SDS011;42045;52.986;6.014;2023-01-19T05:05:44;5.95;;;1.75;;
56161;SDS011;42045;52.986;6.014;2023-01-19T05:08:10;9.95;;;1.20;;
56161;SDS011;42045;52.986;6.014;2023-01-19T05:10:36;8.60;;;1.45;;
56161;SDS011;42045;52.986;6.014;2023-01-19T05:13:01;4.05;;;1.30;;
56161;SDS011;42045;52.986;6.014;2023-01-19T05:15:28;5.40;;;1.05;;
56161;SDS011;42045;52.986;6.014;2023-01-19T05:17:54;8.45;;;1.10;;
56161;SDS011;42045;52.986;6.014;2023-01-19T05:20:22;6.10;;;1.00;;
56161;SDS011;42045;52.986;6.014;2023-01-19T05:22:49;6.70;;;1.67;;
56161;SDS011;42045;52.986;6.014;2023-01-19T05:25:17;6.10;;;1.13;;
56161;SDS011;42045;52.986;6.014;2023-01-19T05:27:43;8.75;;;1.20;;
56161;SDS011;42045;52.986;6.014;2023-01-19T05:30:10;7.25;;;1.10;;
56161;SDS011;42045;52.986;6.014;2023-01-19T05:32:37;7.85;;;1.30;;
56161;SDS011;42045;52.986;6.014;2023-01-19T05:35:03;10.40;;;1.30;;
56161;SDS011;42045;52.986;6.014;2023-01-19T05:37:29;7.65;;;1.15;;
56161;SDS011;42045;52.986;6.014;2023-01-19T05:39:56;11.07;;;1.70;;
56161;SDS011;42045;52.986;6.014;2023-01-19T05:42:22;9.82;;;1.08;;
56161;SDS011;42045;52.986;6.014;2023-01-19T05:44:48;12.65;;;2.20;;
56161;SDS011;42045;52.986;6.014;2023-01-19T05:47:13;6.80;;;1.58;;
56161;SDS011;42045;52.986;6.014;2023-01-19T05:49:39;15.38;;;1.85;;
56161;SDS011;42045;52.986;6.014;2023-01-19T05:52:05;9.32;;;1.90;;
56161;SDS011;42045;52.986;6.014;2023-01-19T05:54:31;8.00;;;1.35;;
56161;SDS011;42045;52.986;6.014;2023-01-19T05:56:56;16.45;;;2.63;;
56161;SDS011;42045;52.986;6.014;2023-01-19T05:59:22;14.18;;;2.15;;
56161;SDS011;42045;52.986;6.014;2023-01-19T06:01:51;9.98;;;1.48;;
56161;SDS011;42045;52.986;6.014;2023-01-19T06:04:18;12.68;;;1.85;;
56161;SDS011;42045;52.986;6.014;2023-01-19T06:06:46;12.27;;;2.15;;
56161;SDS011;42045;52.986;6.014;2023-01-19T06:09:12;19.35;;;2.38;;
56161;SDS011;42045;52.986;6.014;2023-01-19T06:11:38;12.55;;;2.20;;
56161;SDS011;42045;52.986;6.014;2023-01-19T06:14:04;12.13;;;2.03;;
56161;SDS011;42045;52.986;6.014;2023-01-19T06:16:30;10.38;;;3.30;;
56161;SDS011;42045;52.986;6.014;2023-01-19T06:18:55;17.40;;;3.72;;
56161;SDS011;42045;52.986;6.014;2023-01-19T06:21:21;11.90;;;2.92;;
56161;SDS011;42045;52.986;6.014;2023-01-19T06:23:47;21.17;;;4.57;;
56161;SDS011;42045;52.986;6.014;2023-01-19T06:26:13;12.68;;;2.53;;
56161;SDS011;42045;52.986;6.014;2023-01-19T06:28:38;17.65;;;3.83;;
56161;SDS011;42045;52.986;6.014;2023-01-19T06:31:04;13.63;;;2.38;;
56161;SDS011;42045;52.986;6.014;2023-01-19T06:33:30;16.05;;;2.72;;
56161;SDS011;42045;52.986;6.014;2023-01-19T06:35:55;17.67;;;2.50;;
56161;SDS011;42045;52.986;6.014;2023-01-19T06:38:21;13.38;;;2.22;;
56161;SDS011;42045;52.986;6.014;2023-01-19T06:40:54;19.33;;;2.40;;
56161;SDS011;42045;52.986;6.014;2023-01-19T06:43:26;14.07;;;1.83;;
56161;SDS011;42045;52.986;6.014;2023-01-19T06:45:52;14.50;;;2.42;;
56161;SDS011;42045;52.986;6.014;2023-01-19T06:48:18;17.15;;;3.50;;
56161;SDS011;42045;52.986;6.014;2023-01-19T06:50:44;15.45;;;2.65;;
56161;SDS011;42045;52.986;6.014;2023-01-19T06:53:11;18.42;;;2.13;;
56161;SDS011;42045;52.986;6.014;2023-01-19T06:55:37;19.23;;;2.65;;
56161;SDS011;42045;52.986;6.014;2023-01-19T06:58:03;12.73;;;2.33;;
56161;SDS011;42045;52.986;6.014;2023-01-19T07:00:29;14.43;;;2.85;;
56161;SDS011;42045;52.986;6.014;2023-01-19T07:02:54;15.88;;;2.28;;
56161;SDS011;42045;52.986;6.014;2023-01-19T07:05:20;20.00;;;2.95;;
56161;SDS011;42045;52.986;6.014;2023-01-19T07:07:55;13.05;;;2.25;;
56161;SDS011;42045;52.986;6.014;2023-01-19T07:10:22;15.20;;;3.17;;
56161;SDS011;42045;52.986;6.014;2023-01-19T07:12:48;18.52;;;2.65;;
56161;SDS011;42045;52.986;6.014;2023-01-19T07:15:14;17.13;;;2.55;;
56161;SDS011;42045;52.986;6.014;2023-01-19T07:17:42;16.90;;;3.63;;
56161;SDS011;42045;52.986;6.014;2023-01-19T07:20:08;19.45;;;2.65;;
56161;SDS011;42045;52.986;6.014;2023-01-19T07:22:38;17.42;;;3.05;;
56161;SDS011;42045;52.986;6.014;2023-01-19T07:25:09;17.63;;;2.70;;
56161;SDS011;42045;52.986;6.014;2023-01-19T07:27:35;18.95;;;2.33;;
56161;SDS011;42045;52.986;6.014;2023-01-19T07:30:01;20.35;;;3.78;;
56161;SDS011;42045;52.986;6.014;2023-01-19T07:32:28;16.63;;;2.70;;
56161;SDS011;42045;52.986;6.014;2023-01-19T07:34:54;18.70;;;2.95;;
56161;SDS011;42045;52.986;6.014;2023-01-19T07:37:20;19.00;;;3.45;;
56161;SDS011;42045;52.986;6.014;2023-01-19T07:39:45;12.95;;;3.22;;
56161;SDS011;42045;52.986;6.014;2023-01-19T07:42:11;20.65;;;3.22;;
56161;SDS011;42045;52.986;6.014;2023-01-19T07:44:37;17.27;;;2.80;;
56161;SDS011;42045;52.986;6.014;2023-01-19T07:47:03;19.20;;;2.80;;
56161;SDS011;42045;52.986;6.014;2023-01-19T07:49:31;19.92;;;2.22;;
56161;SDS011;42045;52.986;6.014;2023-01-19T07:51:57;16.40;;;2.78;;
56161;SDS011;42045;52.986;6.014;2023-01-19T07:54:22;15.77;;;3.40;;
56161;SDS011;42045;52.986;6.014;2023-01-19T07:56:48;14.98;;;3.92;;
56161;SDS011;42045;52.986;6.014;2023-01-19T07:59:17;15.70;;;3.00;;
56161;SDS011;42045;52.986;6.014;2023-01-19T08:01:42;18.55;;;3.30;;
56161;SDS011;42045;52.986;6.014;2023-01-19T08:04:08;13.18;;;2.88;;
56161;SDS011;42045;52.986;6.014;2023-01-19T08:06:35;19.23;;;2.83;;
56161;SDS011;42045;52.986;6.014;2023-01-19T08:09:02;14.20;;;2.28;;
56161;SDS011;42045;52.986;6.014;2023-01-19T08:11:32;14.75;;;2.20;;
56161;SDS011;42045;52.986;6.014;2023-01-19T08:13:58;12.60;;;2.55;;
56161;SDS011;42045;52.986;6.014;2023-01-19T08:16:24;30.30;;;4.82;;
56161;SDS011;42045;52.986;6.014;2023-01-19T08:18:51;10.98;;;2.22;;
56161;SDS011;42045;52.986;6.014;2023-01-19T08:21:17;17.88;;;3.33;;
56161;SDS011;42045;52.986;6.014;2023-01-19T08:23:43;13.05;;;2.42;;
56161;SDS011;42045;52.986;6.014;2023-01-19T08:26:16;12.95;;;2.60;;
56161;SDS011;42045;52.986;6.014;2023-01-19T08:28:43;13.45;;;2.58;;
56161;SDS011;42045;52.986;6.014;2023-01-19T08:31:09;15.60;;;2.40;;
56161;SDS011;42045;52.986;6.014;2023-01-19T08:33:35;12.75;;;2.15;;
56161;SDS011;42045;52.986;6.014;2023-01-19T08:36:00;16.20;;;2.53;;
56161;SDS011;42045;52.986;6.014;2023-01-19T08:38:26;12.23;;;1.95;;
56161;SDS011;42045;52.986;6.014;2023-01-19T08:40:52;13.80;;;2.20;;
56161;SDS011;42045;52.986;6.014;2023-01-19T08:43:18;21.40;;;2.25;;
56161;SDS011;42045;52.986;6.014;2023-01-19T08:45:49;10.05;;;2.05;;
56161;SDS011;42045;52.986;6.014;2023-01-19T08:48:17;14.80;;;1.97;;
56161;SDS011;42045;52.986;6.014;2023-01-19T08:50:46;24.23;;;2.72;;
56161;SDS011;42045;52.986;6.014;2023-01-19T08:53:12;15.50;;;2.75;;
56161;SDS011;42045;52.986;6.014;2023-01-19T08:55:39;12.32;;;2.22;;
56161;SDS011;42045;52.986;6.014;2023-01-19T08:58:05;15.93;;;2.65;;
56161;SDS011;42045;52.986;6.014;2023-01-19T09:00:33;11.60;;;2.20;;
56161;SDS011;42045;52.986;6.014;2023-01-19T09:03:02;18.08;;;3.35;;
56161;SDS011;42045;52.986;6.014;2023-01-19T09:05:29;15.52;;;2.50;;
56161;SDS011;42045;52.986;6.014;2023-01-19T09:07:59;13.60;;;2.63;;
56161;SDS011;42045;52.986;6.014;2023-01-19T09:10:26;16.30;;;2.40;;
56161;SDS011;42045;52.986;6.014;2023-01-19T09:12:56;16.25;;;2.95;;
56161;SDS011;42045;52.986;6.014;2023-01-19T09:15:21;14.82;;;2.50;;
56161;SDS011;42045;52.986;6.014;2023-01-19T09:17:47;16.48;;;3.42;;
56161;SDS011;42045;52.986;6.014;2023-01-19T09:20:16;17.85;;;3.45;;
56161;SDS011;42045;52.986;6.014;2023-01-19T09:22:41;16.08;;;3.13;;
56161;SDS011;42045;52.986;6.014;2023-01-19T09:25:07;17.63;;;2.83;;
56161;SDS011;42045;52.986;6.014;2023-01-19T09:27:33;14.52;;;2.63;;
56161;SDS011;42045;52.986;6.014;2023-01-19T09:29:59;13.70;;;2.55;;
56161;SDS011;42045;52.986;6.014;2023-01-19T09:32:25;17.20;;;2.38;;
56161;SDS011;42045;52.986;6.014;2023-01-19T09:34:51;12.25;;;2.85;;
56161;SDS011;42045;52.986;6.014;2023-01-19T09:37:19;20.10;;;2.72;;
56161;SDS011;42045;52.986;6.014;2023-01-19T09:39:44;20.38;;;2.95;;
56161;SDS011;42045;52.986;6.014;2023-01-19T09:42:26;22.42;;;3.08;;
56161;SDS011;42045;52.986;6.014;2023-01-19T09:45:00;18.10;;;2.83;;
56161;SDS011;42045;52.986;6.014;2023-01-19T09:47:29;15.70;;;3.00;;
56161;SDS011;42045;52.986;6.014;2023-01-19T09:49:58;13.70;;;2.80;;
56161;SDS011;42045;52.986;6.014;2023-01-19T09:52:29;15.85;;;3.05;;
56161;SDS011;42045;52.986;6.014;2023-01-19T09:55:00;13.50;;;2.20;;
56161;SDS011;42045;52.986;6.014;2023-01-19T09:57:26;15.10;;;2.92;;
56161;SDS011;42045;52.986;6.014;2023-01-19T09:59:54;11.82;;;2.17;;
56161;SDS011;42045;52.986;6.014;2023-01-19T10:02:28;17.65;;;3.20;;
56161;SDS011;42045;52.986;6.014;2023-01-19T10:08:07;15.15;;;2.47;;
56161;SDS011;42045;52.986;6.014;2023-01-19T10:10:48;12.65;;;2.30;;
56161;SDS011;42045;52.986;6.014;2023-01-19T10:16:09;12.77;;;2.28;;
56161;SDS011;42045;52.986;6.014;2023-01-19T10:18:46;23.25;;;2.22;;
56161;SDS011;42045;52.986;6.014;2023-01-19T10:21:25;15.63;;;2.42;;
56161;SDS011;42045;52.986;6.014;2023-01-19T10:24:20;15.77;;;2.13;;
56161;SDS011;42045;52.986;6.014;2023-01-19T10:26:54;14.57;;;2.25;;
56161;SDS011;42045;52.986;6.014;2023-01-19T10:29:39;11.45;;;2.20;;
56161;SDS011;42045;52.986;6.014;2023-01-19T10:34:45;11.05;;;2.40;;
56161;SDS011;42045;52.986;6.014;2023-01-19T10:42:33;10.27;;;1.95;;
56161;SDS011;42045;52.986;6.014;2023-01-19T10:45:00;13.75;;;2.60;;
56161;SDS011;42045;52.986;6.014;2023-01-19T10:47:29;10.77;;;2.20;;
56161;SDS011;42045;52.986;6.014;2023-01-19T10:49:59;12.73;;;2.45;;
56161;SDS011;42045;52.986;6.014;2023-01-19T10:52:43;10.48;;;2.38;;
56161;SDS011;42045;52.986;6.014;2023-01-19T10:55:27;17.05;;;2.13;;
56161;SDS011;42045;52.986;6.014;2023-01-19T10:57:58;14.07;;;2.10;;
56161;SDS011;42045;52.986;6.014;2023-01-19T11:00:30;10.02;;;1.73;;
56161;SDS011;42045;52.986;6.014;2023-01-19T11:03:00;12.63;;;1.98;;
56161;SDS011;42045;52.986;6.014;2023-01-19T11:05:28;10.32;;;2.25;;
56161;SDS011;42045;52.986;6.014;2023-01-19T11:07:55;14.63;;;3.00;;
56161;SDS011;42045;52.986;6.014;2023-01-19T11:10:22;7.57;;;1.17;;
56161;SDS011;42045;52.986;6.014;2023-01-19T11:13:02;13.45;;;2.50;;
56161;SDS011;42045;52.986;6.014;2023-01-19T11:18:28;19.30;;;7.60;;
56161;SDS011;42045;52.986;6.014;2023-01-19T11:21:00;9.73;;;2.10;;
56161;SDS011;42045;52.986;6.014;2023-01-19T11:23:40;9.25;;;2.22;;
56161;SDS011;42045;52.986;6.014;2023-01-19T11:26:13;12.82;;;3.17;;
56161;SDS011;42045;52.986;6.014;2023-01-19T11:28:48;11.13;;;2.00;;
56161;SDS011;42045;52.986;6.014;2023-01-19T11:31:19;10.52;;;1.75;;
56161;SDS011;42045;52.986;6.014;2023-01-19T11:34:00;9.50;;;1.92;;
56161;SDS011;42045;52.986;6.014;2023-01-19T11:36:28;11.48;;;1.63;;
56161;SDS011;42045;52.986;6.014;2023-01-19T11:41:44;12.57;;;1.60;;
56161;SDS011;42045;52.986;6.014;2023-01-19T11:44:34;8.75;;;1.73;;
56161;SDS011;42045;52.986;6.014;2023-01-19T11:47:15;8.95;;;1.67;;
56161;SDS011;42045;52.986;6.014;2023-01-19T11:50:10;11.80;;;1.55;;
56161;SDS011;42045;52.986;6.014;2023-01-19T11:55:26;6.03;;;1.90;;
56161;SDS011;42045;52.986;6.014;2023-01-19T11:57:58;11.27;;;2.53;;
56161;SDS011;42045;52.986;6.014;2023-01-19T12:00:25;9.55;;;1.75;;
56161;SDS011;42045;52.986;6.014;2023-01-19T12:03:20;12.57;;;2.15;;
56161;SDS011;42045;52.986;6.014;2023-01-19T12:05:54;15.65;;;2.58;;
56161;SDS011;42045;52.986;6.014;2023-01-19T12:08:26;6.32;;;1.60;;
56161;SDS011;42045;52.986;6.014;2023-01-19T12:10:58;11.57;;;1.95;;
56161;SDS011;42045;52.986;6.014;2023-01-19T12:13:27;6.80;;;1.95;;
56161;SDS011;42045;52.986;6.014;2023-01-19T12:15:59;10.52;;;1.58;;
56161;SDS011;42045;52.986;6.014;2023-01-19T12:18:40;8.13;;;2.10;;
56161;SDS011;42045;52.986;6.014;2023-01-19T12:21:09;9.00;;;1.65;;
56161;SDS011;42045;52.986;6.014;2023-01-19T12:29:02;7.45;;;1.65;;
56161;SDS011;42045;52.986;6.014;2023-01-19T12:31:41;5.00;;;1.27;;
56161;SDS011;42045;52.986;6.014;2023-01-19T12:36:56;8.23;;;1.45;;
56161;SDS011;42045;52.986;6.014;2023-01-19T12:39:28;10.55;;;2.80;;
56161;SDS011;42045;52.986;6.014;2023-01-19T12:42:05;9.27;;;2.38;;
56161;SDS011;42045;52.986;6.014;2023-01-19T12:44:41;9.10;;;2.22;;
56161;SDS011;42045;52.986;6.014;2023-01-19T12:55:01;10.30;;;1.60;;
56161;SDS011;42045;52.986;6.014;2023-01-19T12:59:57;6.50;;;1.50;;
56161;SDS011;42045;52.986;6.014;2023-01-19T13:02:36;7.75;;;2.30;;
56161;SDS011;42045;52.986;6.014;2023-01-19T13:05:13;8.65;;;2.72;;
56161;SDS011;42045;52.986;6.014;2023-01-19T13:13:41;6.28;;;1.55;;
56161;SDS011;42045;52.986;6.014;2023-01-19T13:21:25;7.88;;;1.05;;
56161;SDS011;42045;52.986;6.014;2023-01-19T13:24:07;8.15;;;1.48;;
56161;SDS011;42045;52.986;6.014;2023-01-19T13:26:41;6.50;;;1.20;;
56161;SDS011;42045;52.986;6.014;2023-01-19T13:29:30;6.38;;;1.63;;
56161;SDS011;42045;52.986;6.014;2023-01-19T13:34:53;6.13;;;1.27;;
56161;SDS011;42045;52.986;6.014;2023-01-19T13:37:34;6.93;;;1.90;;
56161;SDS011;42045;52.986;6.014;2023-01-19T13:40:03;7.50;;;2.15;;
56161;SDS011;42045;52.986;6.014;2023-01-19T13:42:32;5.53;;;1.50;;
56161;SDS011;42045;52.986;6.014;2023-01-19T13:45:10;12.82;;;2.55;;
56161;SDS011;42045;52.986;6.014;2023-01-19T13:47:55;7.82;;;2.10;;
56161;SDS011;42045;52.986;6.014;2023-01-19T13:50:28;10.32;;;1.73;;
56161;SDS011;42045;52.986;6.014;2023-01-19T13:52:56;9.53;;;1.80;;
56161;SDS011;42045;52.986;6.014;2023-01-19T13:55:23;6.72;;;1.73;;
56161;SDS011;42045;52.986;6.014;2023-01-19T13:57:54;8.80;;;2.30;;
56161;SDS011;42045;52.986;6.014;2023-01-19T14:00:29;8.90;;;3.00;;
56161;SDS011;42045;52.986;6.014;2023-01-19T14:02:57;6.53;;;1.30;;
56161;SDS011;42045;52.986;6.014;2023-01-19T14:05:34;8.18;;;1.63;;
56161;SDS011;42045;52.986;6.014;2023-01-19T14:10:43;6.30;;;1.35;;
56161;SDS011;42045;52.986;6.014;2023-01-19T14:13:25;8.80;;;1.42;;
56161;SDS011;42045;52.986;6.014;2023-01-19T14:15:58;8.80;;;2.35;;
56161;SDS011;42045;52.986;6.014;2023-01-19T14:18:28;7.15;;;1.70;;
56161;SDS011;42045;52.986;6.014;2023-01-19T14:34:31;6.65;;;1.83;;
56161;SDS011;42045;52.986;6.014;2023-01-19T14:36:57;7.57;;;2.20;;
56161;SDS011;42045;52.986;6.014;2023-01-19T14:39:23;13.07;;;3.08;;
56161;SDS011;42045;52.986;6.014;2023-01-19T14:41:51;6.70;;;2.97;;
56161;SDS011;42045;52.986;6.014;2023-01-19T14:46:57;8.65;;;1.75;;
56161;SDS011;42045;52.986;6.014;2023-01-19T14:49:28;10.70;;;2.28;;
56161;SDS011;42045;52.986;6.014;2023-01-19T14:51:54;9.13;;;1.75;;
56161;SDS011;42045;52.986;6.014;2023-01-19T14:54:26;13.43;;;8.15;;
56161;SDS011;42045;52.986;6.014;2023-01-19T14:57:03;12.68;;;4.75;;
56161;SDS011;42045;52.986;6.014;2023-01-19T14:59:30;14.05;;;5.30;;
56161;SDS011;42045;52.986;6.014;2023-01-19T15:01:56;8.98;;;3.47;;
56161;SDS011;42045;52.986;6.014;2023-01-19T15:04:23;13.73;;;3.72;;
56161;SDS011;42045;52.986;6.014;2023-01-19T15:06:50;11.18;;;3.05;;
56161;SDS011;42045;52.986;6.014;2023-01-19T15:09:16;9.38;;;3.10;;
56161;SDS011;42045;52.986;6.014;2023-01-19T15:11:41;9.20;;;2.15;;
56161;SDS011;42045;52.986;6.014;2023-01-19T15:14:12;10.90;;;2.35;;
56161;SDS011;42045;52.986;6.014;2023-01-19T15:16:39;15.60;;;9.75;;
56161;SDS011;42045;52.986;6.014;2023-01-19T15:19:08;14.05;;;10.88;;
56161;SDS011;42045;52.986;6.014;2023-01-19T15:21:38;20.95;;;17.65;;
56161;SDS011;42045;52.986;6.014;2023-01-19T15:24:09;14.25;;;6.65;;
56161;SDS011;42045;52.986;6.014;2023-01-19T15:26:36;18.73;;;10.38;;
56161;SDS011;42045;52.986;6.014;2023-01-19T15:29:37;13.75;;;5.57;;
56161;SDS011;42045;52.986;6.014;2023-01-19T15:31:55;16.33;;;10.50;;
56161;SDS011;42045;52.986;6.014;2023-01-19T15:34:21;29.95;;;24.70;;
56161;SDS011;42045;52.986;6.014;2023-01-19T15:36:47;24.80;;;19.25;;
56161;SDS011;42045;52.986;6.014;2023-01-19T15:39:12;25.05;;;18.40;;
56161;SDS011;42045;52.986;6.014;2023-01-19T15:41:38;26.13;;;20.80;;
56161;SDS011;42045;52.986;6.014;2023-01-19T15:44:04;26.17;;;17.48;;
56161;SDS011;42045;52.986;6.014;2023-01-19T15:46:31;35.60;;;28.75;;
56161;SDS011;42045;52.986;6.014;2023-01-19T15:48:57;30.05;;;16.73;;
56161;SDS011;42045;52.986;6.014;2023-01-19T15:51:23;26.02;;;15.43;;
56161;SDS011;42045;52.986;6.014;2023-01-19T15:53:50;19.80;;;8.57;;
56161;SDS011;42045;52.986;6.014;2023-01-19T15:56:18;43.47;;;28.15;;
56161;SDS011;42045;52.986;6.014;2023-01-19T15:58:47;22.05;;;15.13;;
56161;SDS011;42045;52.986;6.014;2023-01-19T16:01:17;16.73;;;8.40;;
56161;SDS011;42045;52.986;6.014;2023-01-19T16:03:45;14.95;;;8.50;;
56161;SDS011;42045;52.986;6.014;2023-01-19T16:06:11;14.75;;;11.30;;
56161;SDS011;42045;52.986;6.014;2023-01-19T16:08:38;14.45;;;10.05;;
56161;SDS011;42045;52.986;6.014;2023-01-19T16:11:11;17.40;;;9.65;;
56161;SDS011;42045;52.986;6.014;2023-01-19T16:13:38;14.07;;;5.40;;
56161;SDS011;42045;52.986;6.014;2023-01-19T16:16:05;13.95;;;7.38;;
56161;SDS011;42045;52.986;6.014;2023-01-19T16:18:36;10.98;;;4.80;;